Time;durP1;ratioP1;P1;durP2;ratioP2;P2;SDS_P1;SDS_P2;PMS_P1;PMS_P2;Temp;Humidity;BMP_temperature;BMP_pressure;BME280_temperature;BME280_humidity;BME280_pressure;Samples;Min_cycle;Max_cycle;Signal;HPM_P1;HPM_P2
2022/03/19 00:00:17;;;;;;;;;;;;;;;4.96;41.30;102861.89;1736828;81;21079;-84
2022/03/19 00:02:43;;;;;;;;;;;;;;;4.93;41.41;102864.61;1732239;82;20883;-82
2022/03/19 00:05:09;;;;;;;;;;;;;;;4.88;41.68;102866.55;1735993;82;20226;-83
2022/03/19 00:07:40;;;;;;;;;;;;;;;4.81;42.06;102871.57;1731326;81;20132;-85
2022/03/19 00:10:08;;;;;;;;;;;;;;;4.68;42.52;102875.05;1725691;81;20132;-83
2022/03/19 00:12:33;;;;;;;;;;;;;;;4.43;43.21;102873.70;1731937;82;20268;-82
2022/03/19 00:14:59;;;;;;;;;;;;;;;4.28;43.72;102870.63;1733116;81;20161;-82
2022/03/19 00:17:24;;;;;;;;;;;;;;;4.20;44.06;102880.48;1733264;81;20685;-79
2022/03/19 00:19:50;;;;;;;;;;;;;;;4.14;44.69;102878.06;1731231;82;20465;-81
2022/03/19 00:22:15;;;;;;;;;;;;;;;4.07;44.70;102872.17;1725319;81;20130;-81
2022/03/19 00:24:41;;;;;;;;;;;;;;;4.02;44.88;102879.27;1730664;82;21084;-80
2022/03/19 00:27:07;;;;;;;;;;;;;;;3.91;44.70;102879.59;1725715;81;20301;-78
2022/03/19 00:29:32;;;;;;;;;;;;;;;3.93;44.83;102876.50;1700137;83;20433;-81
2022/03/19 00:31:58;;;;;;;;;;;;;;;3.89;44.99;102870.11;1663340;83;20202;-80
2022/03/19 00:34:24;;;;;;;;;;;;;;;3.88;45.46;102869.23;1684409;84;20471;-81
2022/03/19 00:36:49;;;;;;;;;;;;;;;4.03;45.19;102865.77;1688124;83;21160;-80
2022/03/19 00:39:15;;;;;;;;;;;;;;;4.14;44.79;102867.59;1705571;83;20840;-83
2022/03/19 00:41:41;;;;;;;;;;;;;;;4.23;44.41;102867.31;1720287;83;20204;-81
2022/03/19 00:44:07;;;;;;;;;;;;;;;4.30;43.98;102863.61;1718781;83;20678;-81
2022/03/19 00:46:33;;;;;;;;;;;;;;;4.35;43.86;102862.59;1719626;83;20445;-80
2022/03/19 00:48:59;;;;;;;;;;;;;;;4.34;44.24;102863.52;1721185;83;21105;-82
2022/03/19 00:51:25;;;;;;;;;;;;;;;4.42;43.78;102868.05;1716516;83;20200;-80
2022/03/19 00:53:51;;;;;;;;;;;;;;;4.43;44.07;102864.08;1720812;83;20497;-81
2022/03/19 00:56:17;;;;;;;;;;;;;;;4.45;44.00;102858.79;1718933;83;20148;-81
2022/03/19 00:58:42;;;;;;;;;;;;;;;4.41;44.33;102859.78;1718162;83;20147;-79
2022/03/19 01:01:08;;;;;;;;;;;;;;;4.44;43.83;102863.61;1719442;82;21108;-81
2022/03/19 01:03:33;;;;;;;;;;;;;;;4.43;44.00;102861.92;1718421;82;20156;-81
2022/03/19 01:05:59;;;;;;;;;;;;;;;4.41;43.93;102860.66;1719450;83;20222;-80
2022/03/19 01:08:24;;;;;;;;;;;;;;;4.36;43.94;102859.08;1720457;82;20442;-82
2022/03/19 01:10:50;;;;;;;;;;;;;;;4.35;44.04;102857.36;1717422;83;20177;-82
2022/03/19 01:13:16;;;;;;;;;;;;;;;4.35;44.01;102858.67;1719046;83;21165;-81
2022/03/19 01:15:41;;;;;;;;;;;;;;;4.32;44.28;102855.72;1719210;83;20139;-81
2022/03/19 01:18:07;;;;;;;;;;;;;;;4.30;44.38;102855.77;1719688;83;20155;-81
2022/03/19 01:20:33;;;;;;;;;;;;;;;4.29;44.45;102851.89;1720619;82;20461;-79
2022/03/19 01:22:59;;;;;;;;;;;;;;;4.26;44.60;102851.98;1719601;83;20183;-81
2022/03/19 01:25:25;;;;;;;;;;;;;;;4.23;44.87;102849.00;1720670;83;21097;-83
2022/03/19 01:27:51;;;;;;;;;;;;;;;4.21;45.09;102845.59;1719361;83;20639;-81
2022/03/19 01:30:18;;;;;;;;;;;;;;;4.19;45.43;102840.84;1714622;83;20311;-82
2022/03/19 01:32:43;;;;;;;;;;;;;;;4.15;45.56;102840.55;1716882;83;21047;-81
2022/03/19 01:35:10;;;;;;;;;;;;;;;4.16;45.63;102839.63;1720837;82;20180;-82
2022/03/19 01:37:35;;;;;;;;;;;;;;;4.17;45.67;102838.73;1721756;83;21082;-81
2022/03/19 01:40:01;;;;;;;;;;;;;;;4.16;45.86;102844.86;1721390;83;20167;-82
2022/03/19 01:42:32;;;;;;;;;;;;;;;4.16;45.77;102844.86;1721425;83;20689;-81
2022/03/19 01:44:58;;;;;;;;;;;;;;;4.11;46.36;102850.23;1718768;83;21015;-84
2022/03/19 01:47:24;;;;;;;;;;;;;;;4.13;46.11;102856.72;1721018;82;20266;-83
2022/03/19 01:49:50;;;;;;;;;;;;;;;4.07;46.54;102854.30;1720764;83;21170;-82
2022/03/19 01:52:15;;;;;;;;;;;;;;;3.80;47.81;102859.45;1720301;83;20350;-81
2022/03/19 01:54:42;;;;;;;;;;;;;;;3.62;48.32;102855.64;1718462;82;20203;-80
2022/03/19 01:57:08;;;;;;;;;;;;;;;3.62;48.20;102850.84;1692254;82;21029;-82
2022/03/19 01:59:36;;;;;;;;;;;;;;;3.42;49.02;102849.67;1745177;80;20150;-79
2022/03/19 02:02:06;;;;;;;;;;;;;;;3.27;49.60;102848.79;1750562;80;21189;-83
2022/03/19 02:04:34;;;;;;;;;;;;;;;3.15;50.04;102846.89;1751647;80;20686;-80
2022/03/19 02:07:00;;;;;;;;;;;;;;;3.17;49.94;102845.12;1755954;80;20477;-81
2022/03/19 02:09:25;;;;;;;;;;;;;;;3.03;50.87;102844.61;1754868;80;20125;-81
2022/03/19 02:11:51;;;;;;;;;;;;;;;2.98;51.37;102841.27;1763233;80;20345;-78
2022/03/19 02:14:18;;;;;;;;;;;;;;;2.93;52.04;102845.77;1747930;80;21055;-81
2022/03/19 02:16:43;;;;;;;;;;;;;;;2.97;51.79;102844.80;1757904;80;20208;-81
2022/03/19 02:19:10;;;;;;;;;;;;;;;2.97;52.01;102849.56;1762799;80;20136;-79
2022/03/19 02:21:40;;;;;;;;;;;;;;;2.77;52.52;102845.31;1750048;80;20123;-79
2022/03/19 02:26:50;;;;;;;;;;;;;;;2.94;51.25;102852.72;1760485;80;20169;-80
2022/03/19 02:29:15;;;;;;;;;;;;;;;2.76;52.36;102849.66;1762687;80;20263;-78
2022/03/19 02:31:42;;;;;;;;;;;;;;;2.97;51.84;102850.02;1760423;80;20168;-78
2022/03/19 02:34:10;;;;;;;;;;;;;;;3.04;51.76;102848.95;1753348;80;20517;-82
2022/03/19 02:36:36;;;;;;;;;;;;;;;3.22;50.60;102851.06;1762214;80;20114;-84
2022/03/19 02:39:12;;;;;;;;;;;;;;;3.31;50.76;102849.09;1744808;80;21052;-83
2022/03/19 02:41:46;;;;;;;;;;;;;;;3.39;50.49;102851.06;1749247;81;20278;-79
2022/03/19 02:44:12;;;;;;;;;;;;;;;3.56;50.19;102855.36;1747537;81;20173;-83
2022/03/19 02:46:45;;;;;;;;;;;;;;;3.56;50.10;102857.97;1749526;80;20341;-82
2022/03/19 02:49:11;;;;;;;;;;;;;;;3.74;49.78;102853.98;1745624;80;20186;-79
2022/03/19 02:51:37;;;;;;;;;;;;;;;3.81;49.80;102854.64;1696517;83;21158;-80
2022/03/19 02:54:04;;;;;;;;;;;;;;;3.69;50.68;102858.92;1696894;83;20164;-81
2022/03/19 02:56:34;;;;;;;;;;;;;;;3.53;50.71;102863.28;1744064;81;20127;-83
2022/03/19 02:59:19;;;;;;;;;;;;;;;3.55;50.73;102856.25;1723414;82;20183;-80
2022/03/19 03:01:45;;;;;;;;;;;;;;;3.41;51.46;102859.70;1729616;82;20180;-83
2022/03/19 03:04:11;;;;;;;;;;;;;;;3.57;50.92;102868.84;1716541;83;21274;-81
2022/03/19 03:06:42;;;;;;;;;;;;;;;3.57;50.84;102870.57;1754785;81;20219;-78
2022/03/19 03:09:08;;;;;;;;;;;;;;;3.61;50.46;102870.06;1753567;81;20128;-80
2022/03/19 03:11:34;;;;;;;;;;;;;;;3.71;50.29;102869.75;1751810;80;20193;-79
2022/03/19 03:13:59;;;;;;;;;;;;;;;3.69;50.06;102869.38;1749158;80;20175;-81
2022/03/19 03:16:29;;;;;;;;;;;;;;;3.59;50.53;102868.33;1744597;81;21120;-78
2022/03/19 03:19:00;;;;;;;;;;;;;;;3.59;50.49;102863.11;1743480;81;20478;-81
2022/03/19 03:21:27;;;;;;;;;;;;;;;3.56;50.56;102864.50;1745927;80;20113;-79
2022/03/19 03:23:55;;;;;;;;;;;;;;;3.41;51.36;102866.23;1746501;81;20601;-80
2022/03/19 03:26:21;;;;;;;;;;;;;;;3.38;50.89;102858.02;1756196;81;20654;-82
2022/03/19 03:28:47;;;;;;;;;;;;;;;3.35;50.98;102862.48;1746938;81;21103;-79
2022/03/19 03:31:13;;;;;;;;;;;;;;;3.20;50.95;102856.79;1756517;81;20421;-78
2022/03/19 03:33:38;;;;;;;;;;;;;;;3.10;51.49;102861.84;1745365;81;20150;-80
2022/03/19 03:36:04;;;;;;;;;;;;;;;3.08;51.55;102865.38;1747527;81;20367;-83
2022/03/19 03:38:30;;;;;;;;;;;;;;;3.09;51.49;102868.41;1748739;80;20237;-79
2022/03/19 03:40:55;;;;;;;;;;;;;;;2.96;52.79;102869.18;1755229;80;21078;-83
2022/03/19 03:43:21;;;;;;;;;;;;;;;2.46;54.94;102870.38;1749433;80;20228;-84
2022/03/19 03:45:47;;;;;;;;;;;;;;;2.15;55.70;102867.17;1754794;80;20174;-84
2022/03/19 03:48:12;;;;;;;;;;;;;;;1.96;56.06;102882.82;1753272;80;20120;-79
2022/03/19 03:50:38;;;;;;;;;;;;;;;1.99;56.24;102884.06;1754793;80;20111;-80
2022/03/19 03:53:04;;;;;;;;;;;;;;;2.01;55.36;102883.57;1755630;80;21117;-78
2022/03/19 03:55:30;;;;;;;;;;;;;;;2.04;54.95;102883.51;1754481;80;20263;-80
2022/03/19 03:57:56;;;;;;;;;;;;;;;1.88;55.40;102879.50;1753909;80;20172;-79
2022/03/19 04:00:21;;;;;;;;;;;;;;;1.82;55.23;102879.20;1747224;80;20184;-81
2022/03/19 04:02:47;;;;;;;;;;;;;;;1.90;54.82;102877.74;1748517;80;20136;-78
2022/03/19 04:05:12;;;;;;;;;;;;;;;1.94;54.88;102881.97;1752609;80;22036;-78
2022/03/19 04:07:38;;;;;;;;;;;;;;;1.86;54.85;102879.98;1756871;80;20106;-78
2022/03/19 04:10:05;;;;;;;;;;;;;;;1.84;54.78;102880.48;1751751;80;20102;-78
2022/03/19 04:12:30;;;;;;;;;;;;;;;1.88;54.38;102878.20;1754364;80;20187;-81
2022/03/19 04:14:56;;;;;;;;;;;;;;;2.00;53.93;102881.00;1749182;80;20097;-80
2022/03/19 04:17:21;;;;;;;;;;;;;;;2.11;53.24;102880.31;1751356;80;21137;-82
2022/03/19 04:19:47;;;;;;;;;;;;;;;2.30;52.54;102878.14;1750797;80;20128;-80
2022/03/19 04:22:12;;;;;;;;;;;;;;;2.43;51.89;102876.98;1758749;80;20132;-83
2022/03/19 04:24:38;;;;;;;;;;;;;;;2.53;51.39;102880.67;1758472;80;20775;-83
2022/03/19 04:27:04;;;;;;;;;;;;;;;2.61;50.79;102883.95;1754430;80;20162;-78
2022/03/19 04:29:30;;;;;;;;;;;;;;;2.63;50.50;102882.18;1746282;80;21167;-80
2022/03/19 04:31:55;;;;;;;;;;;;;;;2.68;50.20;102882.91;1752652;80;20244;-82
2022/03/19 04:34:21;;;;;;;;;;;;;;;2.74;49.82;102889.75;1752432;80;20212;-81
2022/03/19 04:36:47;;;;;;;;;;;;;;;2.59;49.91;102890.96;1753043;80;20121;-83
2022/03/19 04:39:12;;;;;;;;;;;;;;;2.60;49.90;102896.60;1758669;80;20297;-79
2022/03/19 04:41:38;;;;;;;;;;;;;;;2.69;49.78;102895.08;1759781;80;21132;-83
2022/03/19 04:44:05;;;;;;;;;;;;;;;2.78;49.55;102897.47;1773225;80;20186;-79
2022/03/19 04:46:30;;;;;;;;;;;;;;;2.81;49.55;102889.56;1757028;80;20133;-81
2022/03/19 04:48:56;;;;;;;;;;;;;;;2.84;49.52;102886.88;1748547;80;20142;-80
2022/03/19 04:51:26;;;;;;;;;;;;;;;2.87;49.29;102893.33;1754351;80;20199;-80
2022/03/19 04:53:51;;;;;;;;;;;;;;;2.92;49.15;102891.02;1755631;80;21279;-83
2022/03/19 04:56:19;;;;;;;;;;;;;;;2.94;49.01;102892.71;1759713;80;20170;-80
2022/03/19 04:58:45;;;;;;;;;;;;;;;2.96;48.74;102892.67;1764452;80;20476;-80
2022/03/19 05:01:10;;;;;;;;;;;;;;;2.88;49.14;102887.64;1756814;80;20140;-81
2022/03/19 05:03:36;;;;;;;;;;;;;;;2.97;48.77;102893.09;1751793;80;20158;-78
2022/03/19 05:06:02;;;;;;;;;;;;;;;3.00;48.56;102894.32;1764503;80;21214;-82
2022/03/19 05:08:27;;;;;;;;;;;;;;;3.01;48.76;102898.63;1750425;80;20106;-80
2022/03/19 05:13:37;;;;;;;;;;;;;;;3.01;49.15;102894.25;1751277;80;20174;-80
2022/03/19 05:16:03;;;;;;;;;;;;;;;3.05;49.05;102901.58;1758329;80;20210;-80
2022/03/19 05:18:28;;;;;;;;;;;;;;;3.10;48.86;102906.22;1757272;80;21062;-80
2022/03/19 05:20:55;;;;;;;;;;;;;;;3.12;49.00;102904.42;1752693;80;20127;-82
2022/03/19 05:23:20;;;;;;;;;;;;;;;3.10;48.88;102907.98;1752072;80;20139;-80
2022/03/19 05:25:46;;;;;;;;;;;;;;;3.13;48.75;102911.36;1752412;80;20611;-80
2022/03/19 05:28:12;;;;;;;;;;;;;;;3.17;48.27;102910.40;1745900;80;20134;-80
2022/03/19 05:30:38;;;;;;;;;;;;;;;3.17;48.04;102914.31;1726540;81;22019;-81
2022/03/19 05:33:04;;;;;;;;;;;;;;;3.17;48.03;102914.31;1770277;80;20225;-81
2022/03/19 05:35:29;;;;;;;;;;;;;;;3.02;48.25;102912.09;1766133;80;20166;-83
2022/03/19 05:37:55;;;;;;;;;;;;;;;2.88;48.48;102916.35;1760761;80;20551;-81
2022/03/19 05:40:20;;;;;;;;;;;;;;;2.82;48.63;102912.13;1747506;80;20109;-82
2022/03/19 05:42:46;;;;;;;;;;;;;;;2.79;48.62;102917.42;1748351;81;22121;-82
2022/03/19 05:45:14;;;;;;;;;;;;;;;2.78;48.78;102922.25;1749576;81;20124;-82
2022/03/19 05:47:39;;;;;;;;;;;;;;;2.91;48.82;102917.58;1748273;80;20135;-81
2022/03/19 05:50:06;;;;;;;;;;;;;;;2.90;48.63;102924.14;1736703;81;20113;-81
2022/03/19 05:52:32;;;;;;;;;;;;;;;2.95;48.32;102917.05;1744269;80;20189;-82
2022/03/19 05:54:57;;;;;;;;;;;;;;;3.02;47.88;102922.08;1739648;81;21164;-79
2022/03/19 05:57:23;;;;;;;;;;;;;;;3.08;47.55;102930.22;1746285;81;20456;-80
2022/03/19 05:59:48;;;;;;;;;;;;;;;3.11;47.56;102932.75;1748946;81;20136;-81
2022/03/19 06:02:14;;;;;;;;;;;;;;;3.16;47.54;102933.48;1749640;81;20140;-82
2022/03/19 06:04:40;;;;;;;;;;;;;;;3.15;47.63;102933.52;1743580;81;20146;-82
2022/03/19 06:07:05;;;;;;;;;;;;;;;3.29;47.51;102939.69;1747608;81;21882;-80
2022/03/19 06:09:31;;;;;;;;;;;;;;;3.45;47.04;102941.02;1745187;81;20182;-81
2022/03/19 06:11:57;;;;;;;;;;;;;;;3.62;46.74;102943.61;1748641;81;20276;-79
2022/03/19 06:14:22;;;;;;;;;;;;;;;3.68;46.32;102943.44;1750873;81;20406;-80
2022/03/19 06:16:49;;;;;;;;;;;;;;;3.82;46.34;102942.59;1739436;81;20716;-81
2022/03/19 06:19:15;;;;;;;;;;;;;;;3.89;45.94;102943.30;1742687;80;21134;-81
2022/03/19 06:21:42;;;;;;;;;;;;;;;4.00;45.45;102939.07;1748002;81;20412;-80
2022/03/19 06:24:09;;;;;;;;;;;;;;;4.04;45.14;102944.59;1739521;81;20178;-81
2022/03/19 06:26:36;;;;;;;;;;;;;;;4.15;44.77;102947.78;1748207;81;20415;-82
2022/03/19 06:29:01;;;;;;;;;;;;;;;4.23;44.52;102951.02;1750658;81;20200;-82
2022/03/19 06:31:27;;;;;;;;;;;;;;;4.31;44.36;102954.25;1742908;81;21214;-84
2022/03/19 06:33:53;;;;;;;;;;;;;;;4.37;43.73;102957.61;1746749;81;20174;-84
2022/03/19 06:39:03;;;;;;;;;;;;;;;4.52;43.53;102968.87;1744322;80;20140;-84
2022/03/19 06:41:28;;;;;;;;;;;;;;;4.64;43.39;102966.34;1751193;80;20165;-86
2022/03/19 06:43:54;;;;;;;;;;;;;;;4.71;43.51;102969.63;1754403;80;21011;-87
2022/03/19 06:46:19;;;;;;;;;;;;;;;4.81;43.28;102972.36;1753892;80;20134;-85
2022/03/19 06:48:46;;;;;;;;;;;;;;;4.94;43.31;102973.70;1758595;80;20329;-89
2022/03/19 06:51:12;;;;;;;;;;;;;;;5.08;43.30;102978.92;1757668;80;20422;-89
2022/03/19 06:53:38;;;;;;;;;;;;;;;5.12;43.37;102987.09;1755895;80;20360;-86
2022/03/19 06:56:05;;;;;;;;;;;;;;;5.00;44.18;102985.28;1758905;80;21120;-87
2022/03/19 06:58:32;;;;;;;;;;;;;;;4.85;44.77;102983.16;1753214;80;20180;-86
2022/03/19 07:00:57;;;;;;;;;;;;;;;4.91;44.82;102985.58;1751260;80;20177;-86
2022/03/19 07:03:23;;;;;;;;;;;;;;;4.92;45.17;102989.89;1719664;81;20230;-81
2022/03/19 07:05:49;;;;;;;;;;;;;;;4.89;45.81;102997.84;1699838;83;20204;-85
2022/03/19 07:08:14;;;;;;;;;;;;;;;5.09;46.30;102998.98;1717051;83;21979;-85
2022/03/19 07:10:40;;;;;;;;;;;;;;;5.20;45.45;102992.48;1717184;83;20147;-85
2022/03/19 07:13:06;;;;;;;;;;;;;;;5.38;45.04;102991.46;1719587;82;20148;-84
2022/03/19 07:15:31;;;;;;;;;;;;;;;5.51;44.72;102995.36;1718200;83;20437;-87
2022/03/19 07:17:58;;;;;;;;;;;;;;;5.62;44.10;102988.43;1723877;83;20698;-81
2022/03/19 07:20:23;;;;;;;;;;;;;;;5.77;43.89;102988.83;1721754;83;21117;-83
2022/03/19 07:22:53;;;;;;;;;;;;;;;5.89;43.63;102987.92;1721485;83;20127;-84
2022/03/19 07:25:21;;;;;;;;;;;;;;;5.96;43.20;102985.92;1719801;83;20165;-86
2022/03/19 07:27:48;;;;;;;;;;;;;;;6.05;43.07;102989.55;1722263;83;20203;-82
2022/03/19 07:30:14;;;;;;;;;;;;;;;6.15;42.87;102997.92;1721357;83;20193;-79
2022/03/19 07:32:40;;;;;;;;;;;;;;;6.22;42.82;102997.27;1723241;83;21058;-84
2022/03/19 07:35:06;;;;;;;;;;;;;;;6.34;42.87;102996.80;1722782;83;20223;-80
2022/03/19 07:37:32;;;;;;;;;;;;;;;6.44;42.71;102992.89;1722566;83;20209;-86
2022/03/19 07:39:58;;;;;;;;;;;;;;;6.63;42.86;102996.13;1695920;82;20241;-85
2022/03/19 07:42:24;;;;;;;;;;;;;;;6.82;42.64;102994.93;1701938;82;20199;-83
2022/03/19 07:44:50;;;;;;;;;;;;;;;6.95;42.20;103000.56;1740592;81;21175;-83
2022/03/19 07:47:15;;;;;;;;;;;;;;;7.08;41.58;102999.59;1738254;81;20113;-86
2022/03/19 07:49:41;;;;;;;;;;;;;;;7.19;41.32;102997.38;1744459;81;20344;-86
2022/03/19 07:52:09;;;;;;;;;;;;;;;7.26;40.82;103003.25;1759352;80;20123;-82
2022/03/19 07:54:36;;;;;;;;;;;;;;;7.17;41.39;103005.32;1739438;81;20196;-79
2022/03/19 07:57:05;;;;;;;;;;;;;;;7.12;41.08;103009.08;1732851;81;21090;-86
2022/03/19 07:59:31;;;;;;;;;;;;;;;7.12;41.32;103005.98;1733447;81;20179;-87
2022/03/19 08:01:56;;;;;;;;;;;;;;;7.25;41.19;103009.42;1736364;81;20175;-81
2022/03/19 08:04:22;;;;;;;;;;;;;;;7.37;41.14;103019.42;1725627;81;20154;-88
2022/03/19 08:06:53;;;;;;;;;;;;;;;7.47;40.90;103020.76;1740076;80;20181;-84
2022/03/19 08:09:18;;;;;;;;;;;;;;;7.51;40.40;103019.69;1744116;80;20157;-83
2022/03/19 08:11:43;;;;;;;;;;;;;;;7.55;40.29;103023.91;1749877;81;20148;-84
2022/03/19 08:14:09;;;;;;;;;;;;;;;7.65;40.20;103019.56;1732694;81;20173;-86
2022/03/19 08:16:34;;;;;;;;;;;;;;;7.52;38.86;103029.30;1695188;81;20167;-82
2022/03/19 08:19:00;;;;;;;;;;;;;;;7.45;37.53;103033.56;1730598;81;20134;-83
2022/03/19 08:21:26;;;;;;;;;;;;;;;7.50;37.61;103029.83;1741774;80;21285;-82
2022/03/19 08:23:52;;;;;;;;;;;;;;;7.45;37.00;103035.72;1748071;79;20116;-85
2022/03/19 08:26:18;;;;;;;;;;;;;;;7.54;37.46;103032.70;1746146;81;20167;-80
2022/03/19 08:28:43;;;;;;;;;;;;;;;7.64;37.30;103032.31;1734827;81;20154;-82
2022/03/19 08:31:09;;;;;;;;;;;;;;;7.73;37.40;103030.60;1733427;81;20125;-82
2022/03/19 08:33:35;;;;;;;;;;;;;;;7.65;36.43;103034.03;1721608;81;21139;-80
2022/03/19 08:36:00;;;;;;;;;;;;;;;7.78;36.83;103029.94;1690862;83;20208;-80
2022/03/19 08:41:10;;;;;;;;;;;;;;;7.85;36.66;103035.33;1753717;80;20138;-81
2022/03/19 08:43:35;;;;;;;;;;;;;;;7.97;36.59;103031.31;1753085;80;20219;-81
2022/03/19 08:46:01;;;;;;;;;;;;;;;7.99;35.55;103032.56;1753727;80;21106;-84
2022/03/19 08:48:26;;;;;;;;;;;;;;;7.95;34.98;103033.61;1755285;80;20106;-82
2022/03/19 08:50:52;;;;;;;;;;;;;;;8.02;35.17;103027.17;1759205;80;20193;-82
2022/03/19 08:53:18;;;;;;;;;;;;;;;8.14;35.44;103028.38;1753655;80;20100;-82
2022/03/19 08:55:45;;;;;;;;;;;;;;;8.22;34.24;103027.11;1758486;80;20135;-84
2022/03/19 08:58:11;;;;;;;;;;;;;;;8.32;33.55;103030.17;1761201;80;20104;-89
2022/03/19 09:00:40;;;;;;;;;;;;;;;8.31;31.41;103026.30;1757752;80;20189;-85
2022/03/19 09:03:04;;;;;;;;;;;;;;;8.45;31.48;103023.91;1756568;80;20120;-83
2022/03/19 09:05:32;;;;;;;;;;;;;;;8.55;30.73;103026.52;1752760;80;20191;-92
2022/03/19 09:07:57;;;;;;;;;;;;;;;8.78;31.29;103032.48;1760147;80;20101;-83
2022/03/19 09:10:23;;;;;;;;;;;;;;;8.95;30.96;103036.48;1759928;80;21023;-90
2022/03/19 09:12:48;;;;;;;;;;;;;;;8.93;29.96;103043.61;1749440;80;21265;-89
2022/03/19 09:15:14;;;;;;;;;;;;;;;8.94;29.37;103033.91;1752687;80;20136;-87
2022/03/19 09:17:40;;;;;;;;;;;;;;;9.18;29.77;103027.89;1753535;80;20118;-83
2022/03/19 09:20:06;;;;;;;;;;;;;;;9.26;29.55;103029.70;1754530;80;20097;-83
2022/03/19 09:22:32;;;;;;;;;;;;;;;9.36;29.80;103021.33;1758057;79;21042;-83
2022/03/19 09:24:58;;;;;;;;;;;;;;;9.43;29.19;103021.39;1756766;80;20232;-80
2022/03/19 09:27:24;;;;;;;;;;;;;;;9.42;28.46;103017.06;1759893;79;20232;-80
2022/03/19 09:29:49;;;;;;;;;;;;;;;9.48;27.95;103025.98;1763522;80;20146;-84
2022/03/19 09:32:17;;;;;;;;;;;;;;;9.61;28.13;103027.05;1760215;80;20865;-89
2022/03/19 09:34:47;;;;;;;;;;;;;;;9.66;28.03;103018.45;1755052;79;21138;-81
2022/03/19 09:37:10;;;;;;;;;;;;;;;9.59;27.66;103023.64;1748362;80;20226;-80
2022/03/19 09:39:36;;;;;;;;;;;;;;;9.63;27.62;103026.52;1758618;79;20083;-80
2022/03/19 09:42:02;;;;;;;;;;;;;;;9.66;27.98;103018.45;1757720;79;20108;-84
2022/03/19 09:44:28;;;;;;;;;;;;;;;9.72;27.88;103016.41;1755901;79;20093;-82
2022/03/19 09:46:53;;;;;;;;;;;;;;;9.75;27.95;103018.89;1761393;79;21059;-80
2022/03/19 09:49:19;;;;;;;;;;;;;;;9.77;27.47;103024.49;1757487;79;20256;-81
2022/03/19 09:51:49;;;;;;;;;;;;;;;9.83;27.20;103025.94;1766336;80;20176;-81
2022/03/19 09:54:14;;;;;;;;;;;;;;;9.82;27.00;103025.54;1762187;79;20668;-80
2022/03/19 09:56:40;;;;;;;;;;;;;;;9.90;27.30;103024.69;1751146;79;20112;-80
2022/03/19 09:59:06;;;;;;;;;;;;;;;9.91;26.88;103017.14;1749831;80;21047;-81
2022/03/19 10:01:33;;;;;;;;;;;;;;;10.02;27.28;103019.22;1763457;79;20106;-80
2022/03/19 10:04:03;;;;;;;;;;;;;;;10.05;27.33;103017.73;1760075;80;20342;-81
2022/03/19 10:09:18;;;;;;;;;;;;;;;10.17;26.66;103028.11;1766895;80;20200;-84
2022/03/19 10:11:49;;;;;;;;;;;;;;;10.24;26.43;103017.14;1760861;79;21136;-82
2022/03/19 10:14:21;;;;;;;;;;;;;;;10.23;26.16;103022.50;1767155;80;20122;-80
2022/03/19 10:16:49;;;;;;;;;;;;;;;10.13;26.07;103017.32;1769435;79;20108;-85
2022/03/19 10:19:14;;;;;;;;;;;;;;;10.19;26.25;103018.31;1766248;80;20137;-82
2022/03/19 10:21:41;;;;;;;;;;;;;;;10.33;26.35;103012.31;1767979;80;20137;-82
2022/03/19 10:24:07;;;;;;;;;;;;;;;10.18;26.00;103013.98;1768319;79;21259;-83
2022/03/19 10:26:37;;;;;;;;;;;;;;;10.36;26.28;103012.14;1767286;80;20123;-81
2022/03/19 10:29:07;;;;;;;;;;;;;;;10.23;25.55;103015.42;1770619;80;20116;-82
2022/03/19 10:31:46;;;;;;;;;;;;;;;10.39;25.81;103015.94;1771128;79;20138;-84
2022/03/19 10:34:12;;;;;;;;;;;;;;;10.30;25.91;103015.97;1774044;79;20100;-85
2022/03/19 10:36:39;;;;;;;;;;;;;;;10.30;25.83;103012.45;1747892;80;21181;-81
2022/03/19 10:39:09;;;;;;;;;;;;;;;10.49;26.06;103016.31;1759675;79;20099;-78
2022/03/19 10:41:35;;;;;;;;;;;;;;;10.62;25.78;103004.09;1763957;80;20122;-82
2022/03/19 10:44:17;;;;;;;;;;;;;;;10.75;25.46;103010.41;1730372;80;38036;-86
2022/03/19 10:46:48;;;;;;;;;;;;;;;10.81;25.17;103007.03;1756223;80;20163;-81
2022/03/19 10:49:14;;;;;;;;;;;;;;;10.80;25.25;103000.03;1767696;80;21843;-82
2022/03/19 10:51:40;;;;;;;;;;;;;;;10.63;25.32;103000.53;1763228;80;20204;-84
2022/03/19 10:54:06;;;;;;;;;;;;;;;10.99;25.50;102998.05;1748997;80;20171;-83
2022/03/19 10:56:32;;;;;;;;;;;;;;;11.14;25.21;102994.99;1769485;80;20589;-81
2022/03/19 10:58:57;;;;;;;;;;;;;;;11.21;25.06;102988.86;1762525;80;20278;-86
2022/03/19 11:01:23;;;;;;;;;;;;;;;11.23;24.90;102992.26;1762118;80;21048;-86
2022/03/19 11:03:49;;;;;;;;;;;;;;;11.10;24.78;102989.48;1760910;80;20165;-85
2022/03/19 11:06:14;;;;;;;;;;;;;;;11.17;24.59;102988.66;1763779;80;20162;-81
2022/03/19 11:08:44;;;;;;;;;;;;;;;11.30;24.37;102987.84;1757088;80;20114;-84
2022/03/19 11:11:11;;;;;;;;;;;;;;;11.12;24.40;102989.80;1763357;80;20221;-87
2022/03/19 11:13:42;;;;;;;;;;;;;;;11.02;24.26;102984.65;1759578;80;22686;-86
2022/03/19 11:16:08;;;;;;;;;;;;;;;11.06;24.09;102975.61;1760843;80;20137;-86
2022/03/19 11:18:34;;;;;;;;;;;;;;;11.18;24.42;102986.40;1757630;80;20189;-85
2022/03/19 11:20:59;;;;;;;;;;;;;;;11.06;24.16;102983.54;1755972;80;20151;-86
2022/03/19 11:23:28;;;;;;;;;;;;;;;11.21;24.26;102975.64;1757701;80;20150;-87
2022/03/19 11:25:58;;;;;;;;;;;;;;;11.24;24.06;102975.45;1758899;80;22031;-84
2022/03/19 11:28:22;;;;;;;;;;;;;;;11.16;24.05;102975.91;1755288;80;20126;-86
2022/03/19 11:31:07;;;;;;;;;;;;;;;11.22;24.24;102969.42;1756855;80;20196;-82
2022/03/19 11:33:34;;;;;;;;;;;;;;;11.29;23.97;102957.51;1759595;80;20177;-84
2022/03/19 11:36:03;;;;;;;;;;;;;;;11.41;23.96;102956.77;1760409;80;20151;-86
2022/03/19 11:38:30;;;;;;;;;;;;;;;11.39;23.73;102953.38;1757836;80;21937;-84
2022/03/19 11:40:56;;;;;;;;;;;;;;;11.43;23.72;102952.23;1748255;80;20154;-86
2022/03/19 11:43:33;;;;;;;;;;;;;;;11.37;23.49;102956.57;1732235;82;20334;-87
2022/03/19 11:46:00;;;;;;;;;;;;;;;11.37;23.28;102958.37;1730306;82;20146;-84
2022/03/19 11:48:43;;;;;;;;;;;;;;;11.40;23.22;102948.45;1725648;81;20210;-84
2022/03/19 11:51:28;;;;;;;;;;;;;;;11.42;23.53;102947.91;1729091;82;20644;-84
2022/03/19 11:54:09;;;;;;;;;;;;;;;11.52;23.48;102944.70;1729606;82;20214;-83
2022/03/19 11:56:48;;;;;;;;;;;;;;;11.55;23.46;102945.35;1726401;82;20157;-85
2022/03/19 11:59:24;;;;;;;;;;;;;;;11.39;22.97;102945.44;1731485;82;20216;-84
2022/03/19 12:02:08;;;;;;;;;;;;;;;11.56;23.18;102944.87;1730508;82;20131;-87
2022/03/19 12:04:45;;;;;;;;;;;;;;;11.49;22.75;102945.24;1732604;82;21140;-85
2022/03/19 12:07:11;;;;;;;;;;;;;;;11.55;22.80;102944.52;1729992;82;20130;-84
2022/03/19 12:09:44;;;;;;;;;;;;;;;11.75;22.83;102941.48;1733535;82;20143;-86
2022/03/19 12:12:27;;;;;;;;;;;;;;;11.84;22.82;102930.33;1731018;81;20130;-85
2022/03/19 12:14:52;;;;;;;;;;;;;;;12.11;22.76;102935.34;1725762;82;20626;-81
2022/03/19 12:17:27;;;;;;;;;;;;;;;12.16;22.69;102936.73;1726703;82;21081;-85
2022/03/19 12:20:01;;;;;;;;;;;;;;;12.36;22.61;102938.59;1731238;81;20149;-83
2022/03/19 12:22:39;;;;;;;;;;;;;;;12.46;22.07;102938.83;1732513;82;20225;-86
2022/03/19 12:25:17;;;;;;;;;;;;;;;12.31;22.04;102942.02;1731655;82;20115;-85
2022/03/19 12:27:56;;;;;;;;;;;;;;;12.43;21.70;102935.92;1733460;81;20163;-86
2022/03/19 12:30:23;;;;;;;;;;;;;;;12.27;22.18;102939.17;1734911;82;21032;-85
2022/03/19 12:32:57;;;;;;;;;;;;;;;12.40;22.41;102938.77;1736381;82;20274;-84
2022/03/19 12:35:25;;;;;;;;;;;;;;;12.44;22.27;102935.44;1728540;82;20715;-82
2022/03/19 12:37:54;;;;;;;;;;;;;;;12.45;22.05;102937.15;1733769;82;20172;-86
2022/03/19 12:40:24;;;;;;;;;;;;;;;12.52;22.10;102939.30;1728739;81;20198;-87
2022/03/19 12:42:55;;;;;;;;;;;;;;;12.66;22.40;102928.25;1764659;80;21272;-83
2022/03/19 12:45:38;;;;;;;;;;;;;;;12.85;22.56;102930.06;1760706;80;20126;-83
2022/03/19 12:48:18;;;;;;;;;;;;;;;12.80;22.28;102931.31;1761392;79;20226;-85
2022/03/19 12:50:51;;;;;;;;;;;;;;;13.00;21.81;102929.48;1762232;80;21207;-84
2022/03/19 12:53:17;;;;;;;;;;;;;;;13.11;21.90;102926.11;1760384;80;20201;-83
2022/03/19 12:55:43;;;;;;;;;;;;;;;13.02;21.30;102926.28;1763014;80;22173;-83
2022/03/19 12:58:08;;;;;;;;;;;;;;;13.01;21.29;102930.36;1759876;80;20113;-85